<?xml version="1.0" encoding="UTF-8" standalone="no" ?>
<gpx xmlns="http://www.topografix.com/GPX/1/1" creator="MapSource 6.15.11" version="1.1" xmlns:xsi="http://www.w3.org/2001/XMLSchema-instance" xsi:schemaLocation="http://www.topografix.com/GPX/1/1 http://www.topografix.com/GPX/1/1/gpx.xsd">

  <metadata>
    <link href="http://www.garmin.com">
      <text>Garmin International</text>
    </link>
    <time>2014-04-21T15:38:05Z</time>
    <bounds maxlat="47.5778475" maxlon="10.7305299" minlat="47.5651101" minlon="10.6270916"/>
  </metadata>

  <wpt lat="47.5758648" lon="10.7259607">
    <time>2014-04-21T15:06:53Z</time>
    <name>Königliche Kristall Therme</name>
    <cmt>Königliche Kristall Therme</cmt>
    <desc>Königliche Kristall Therme</desc>
    <sym>Navaid, Blue</sym>
    <extensions>
      <gpxx:WaypointExtension xmlns:gpxx="http://www.garmin.com/xmlschemas/GpxExtensions/v3">
        <gpxx:DisplayMode>SymbolAndName</gpxx:DisplayMode>
      </gpxx:WaypointExtension>
    </extensions>
  </wpt>

  <rte>
    <name>Füssener Strasse (B 17) und Föhrenbergweg bis Königliche Kristall Therme</name>
    <extensions>
      <gpxx:RouteExtension xmlns:gpxx="http://www.garmin.com/xmlschemas/GpxExtensions/v3">
        <gpxx:IsAutoNamed>true</gpxx:IsAutoNamed>
        <gpxx:DisplayColor>Magenta</gpxx:DisplayColor>
      </gpxx:RouteExtension>
    </extensions>
    <rtept lat="47.5735474" lon="10.7304668">
      <time>2014-04-21T15:08:28Z</time>
      <name>Füssener Strasse (B 17) und Föhrenbergweg</name>
      <cmt>Füssener Strasse (B 17) und Föhrenbergweg</cmt>
      <desc>Füssener Strasse (B 17) und Föhrenbergweg</desc>
      <sym>Waypoint</sym>
      <extensions>
        <gpxx:RoutePointExtension xmlns:gpxx="http://www.garmin.com/xmlschemas/GpxExtensions/v3">
          <gpxx:Subclass>03D05318E4030D00A8010F21070080D46CA1</gpxx:Subclass>
          <gpxx:rpt lat="47.5735474" lon="10.7304668">
            <gpxx:Subclass>03005318E403372B010021160000C8010000</gpxx:Subclass>
          </gpxx:rpt>
          <gpxx:rpt lat="47.5735474" lon="10.7304668">
            <gpxx:Subclass>06005318E4033FBF01001F000F00E9A48800</gpxx:Subclass>
          </gpxx:rpt>
          <gpxx:rpt lat="47.5735903" lon="10.7303381"/>
          <gpxx:rpt lat="47.5739121" lon="10.7297802"/>
          <gpxx:rpt lat="47.5742984" lon="10.7289648"/>
          <gpxx:rpt lat="47.5745988" lon="10.7284069"/>
          <gpxx:rpt lat="47.5746202" lon="10.7283425"/>
          <gpxx:rpt lat="47.5747061" lon="10.7281494"/>
          <gpxx:rpt lat="47.5747490" lon="10.7281065"/>
          <gpxx:rpt lat="47.5749636" lon="10.7276559"/>
          <gpxx:rpt lat="47.5750709" lon="10.7274413"/>
          <gpxx:rpt lat="47.5751781" lon="10.7272267"/>
          <gpxx:rpt lat="47.5752425" lon="10.7271624"/>
          <gpxx:rpt lat="47.5753498" lon="10.7270336"/>
          <gpxx:rpt lat="47.5754786" lon="10.7269907">
            <gpxx:Subclass>07005318E403521305001F060F005FA60A00</gpxx:Subclass>
          </gpxx:rpt>
          <gpxx:rpt lat="47.5755215" lon="10.7269049"/>
          <gpxx:rpt lat="47.5755429" lon="10.7269049"/>
          <gpxx:rpt lat="47.5755858" lon="10.7269049"/>
          <gpxx:rpt lat="47.5756288" lon="10.7268190"/>
          <gpxx:rpt lat="47.5756717" lon="10.7267761">
            <gpxx:Subclass>07005318E403161305001F000F0079AD0800</gpxx:Subclass>
          </gpxx:rpt>
          <gpxx:rpt lat="47.5757575" lon="10.7265186">
            <gpxx:Subclass>07005318E403161305001F000F0067AD0000</gpxx:Subclass>
          </gpxx:rpt>
          <gpxx:rpt lat="47.5757575" lon="10.7265186">
            <gpxx:Subclass>07005318E403161305002117000000000000</gpxx:Subclass>
          </gpxx:rpt>
        </gpxx:RoutePointExtension>
      </extensions>
    </rtept>
    <rtept lat="47.5758648" lon="10.7259607">
      <time>2014-04-21T15:06:53Z</time>
      <name>Königliche Kristall Therme</name>
      <cmt>Königliche Kristall Therme</cmt>
      <desc>Königliche Kristall Therme</desc>
      <sym>Navaid, Blue</sym>
      <extensions>
        <gpxx:RoutePointExtension xmlns:gpxx="http://www.garmin.com/xmlschemas/GpxExtensions/v3">
          <gpxx:Subclass>004800000000FFFFFFFFFFFFFFFFFFFFFFFF</gpxx:Subclass>
        </gpxx:RoutePointExtension>
      </extensions>
    </rtept>
  </rte>

  <trk>
    <name>Adelhorstparkplatz zur Rohrkopfhuette</name>
    <extensions>
      <gpxx:TrackExtension xmlns:gpxx="http://www.garmin.com/xmlschemas/GpxExtensions/v3">
        <gpxx:DisplayColor>White</gpxx:DisplayColor>
      </gpxx:TrackExtension>
    </extensions>
    <trkseg>
      <trkpt lat="47.5778399" lon="10.6272470">
        <ele>768.7100000</ele>
        <time>2014-03-31T14:54:58Z</time>
      </trkpt>
      <trkpt lat="47.5778475" lon="10.6272394">
        <ele>772.0800000</ele>
        <time>2014-03-31T14:54:59Z</time>
      </trkpt>
      <trkpt lat="47.5777605" lon="10.6271766">
        <ele>773.0400000</ele>
        <time>2014-03-31T14:55:01Z</time>
      </trkpt>
      <trkpt lat="47.5776729" lon="10.6271636">
        <ele>768.7100000</ele>
        <time>2014-03-31T14:55:04Z</time>
      </trkpt>
      <trkpt lat="47.5776548" lon="10.6271611">
        <ele>768.7100000</ele>
        <time>2014-03-31T14:55:05Z</time>
      </trkpt>
      <trkpt lat="47.5776133" lon="10.6270916">
        <ele>768.7100000</ele>
        <time>2014-03-31T14:55:11Z</time>
      </trkpt>
      <trkpt lat="47.5776262" lon="10.6271180">
        <ele>769.1900000</ele>
        <time>2014-03-31T14:55:14Z</time>
      </trkpt>
      <trkpt lat="47.5776501" lon="10.6272139">
        <ele>770.1500000</ele>
        <time>2014-03-31T14:55:16Z</time>
      </trkpt>
      <trkpt lat="47.5776623" lon="10.6272828">
        <ele>770.1500000</ele>
        <time>2014-03-31T14:55:17Z</time>
      </trkpt>
      <trkpt lat="47.5776687" lon="10.6276455">
        <ele>771.1100000</ele>
        <time>2014-03-31T14:55:20Z</time>
      </trkpt>
      <trkpt lat="47.5772785" lon="10.6295366">
        <ele>772.0800000</ele>
        <time>2014-03-31T14:55:30Z</time>
      </trkpt>
      <trkpt lat="47.5765510" lon="10.6322607">
        <ele>770.6300000</ele>
        <time>2014-03-31T14:55:41Z</time>
      </trkpt>
      <trkpt lat="47.5763312" lon="10.6330327">
        <ele>770.6300000</ele>
        <time>2014-03-31T14:55:44Z</time>
      </trkpt>
      <trkpt lat="47.5762339" lon="10.6332703">
        <ele>770.6300000</ele>
        <time>2014-03-31T14:55:45Z</time>
      </trkpt>
      <trkpt lat="47.5761219" lon="10.6334909">
        <ele>771.6000000</ele>
        <time>2014-03-31T14:55:46Z</time>
      </trkpt>
      <trkpt lat="47.5760057" lon="10.6337022">
        <ele>772.0800000</ele>
        <time>2014-03-31T14:55:47Z</time>
      </trkpt>
      <trkpt lat="47.5758822" lon="10.6339040">
        <ele>798.0300000</ele>
        <time>2014-03-31T14:55:48Z</time>
      </trkpt>
      <trkpt lat="47.5757567" lon="10.6341051">
        <ele>798.0300000</ele>
        <time>2014-03-31T14:55:49Z</time>
      </trkpt>
      <trkpt lat="47.5752539" lon="10.6349042">
        <ele>799.9500000</ele>
        <time>2014-03-31T14:55:53Z</time>
      </trkpt>
      <trkpt lat="47.5747601" lon="10.6356548">
        <ele>804.2800000</ele>
        <time>2014-03-31T14:55:57Z</time>
      </trkpt>
      <trkpt lat="47.5746412" lon="10.6358381">
        <ele>804.2800000</ele>
        <time>2014-03-31T14:55:58Z</time>
      </trkpt>
      <trkpt lat="47.5741126" lon="10.6367727">
        <ele>807.1600000</ele>
        <time>2014-03-31T14:56:03Z</time>
      </trkpt>
      <trkpt lat="47.5740347" lon="10.6369697">
        <ele>807.1600000</ele>
        <time>2014-03-31T14:56:04Z</time>
      </trkpt>
      <trkpt lat="47.5737126" lon="10.6384577">
        <ele>808.1300000</ele>
        <time>2014-03-31T14:56:11Z</time>
      </trkpt>
      <trkpt lat="47.5737129" lon="10.6386861">
        <ele>808.1300000</ele>
        <time>2014-03-31T14:56:12Z</time>
      </trkpt>
      <trkpt lat="47.5737360" lon="10.6391508">
        <ele>806.2000000</ele>
        <time>2014-03-31T14:56:14Z</time>
      </trkpt>
      <trkpt lat="47.5737625" lon="10.6393866">
        <ele>804.7600000</ele>
        <time>2014-03-31T14:56:15Z</time>
      </trkpt>
      <trkpt lat="47.5738070" lon="10.6396182">
        <ele>803.8000000</ele>
        <time>2014-03-31T14:56:16Z</time>
      </trkpt>
      <trkpt lat="47.5738755" lon="10.6398399">
        <ele>802.8400000</ele>
        <time>2014-03-31T14:56:17Z</time>
      </trkpt>
      <trkpt lat="47.5739605" lon="10.6400576">
        <ele>801.8800000</ele>
        <time>2014-03-31T14:56:18Z</time>
      </trkpt>
      <trkpt lat="47.5740588" lon="10.6402719">
        <ele>800.4400000</ele>
        <time>2014-03-31T14:56:19Z</time>
      </trkpt>
      <trkpt lat="47.5744436" lon="10.6411484">
        <ele>797.5500000</ele>
        <time>2014-03-31T14:56:23Z</time>
      </trkpt>
      <trkpt lat="47.5745203" lon="10.6413860">
        <ele>797.5500000</ele>
        <time>2014-03-31T14:56:24Z</time>
      </trkpt>
      <trkpt lat="47.5748532" lon="10.6431718">
        <ele>796.1100000</ele>
        <time>2014-03-31T14:56:31Z</time>
      </trkpt>
      <trkpt lat="47.5748535" lon="10.6434264">
        <ele>796.1100000</ele>
        <time>2014-03-31T14:56:32Z</time>
      </trkpt>
      <trkpt lat="47.5748346" lon="10.6436730">
        <ele>796.5900000</ele>
        <time>2014-03-31T14:56:33Z</time>
      </trkpt>
      <trkpt lat="47.5747914" lon="10.6439106">
        <ele>796.5900000</ele>
        <time>2014-03-31T14:56:34Z</time>
      </trkpt>
      <trkpt lat="47.5747275" lon="10.6441358">
        <ele>795.6300000</ele>
        <time>2014-03-31T14:56:35Z</time>
      </trkpt>
      <trkpt lat="47.5746375" lon="10.6443374">
        <ele>796.5900000</ele>
        <time>2014-03-31T14:56:36Z</time>
      </trkpt>
      <trkpt lat="47.5745318" lon="10.6445292">
        <ele>796.5900000</ele>
        <time>2014-03-31T14:56:37Z</time>
      </trkpt>
      <trkpt lat="47.5744097" lon="10.6447089">
        <ele>796.1100000</ele>
        <time>2014-03-31T14:56:38Z</time>
      </trkpt>
      <trkpt lat="47.5742815" lon="10.6448778">
        <ele>796.1100000</ele>
        <time>2014-03-31T14:56:39Z</time>
      </trkpt>
      <trkpt lat="47.5741484" lon="10.6450418">
        <ele>796.5900000</ele>
        <time>2014-03-31T14:56:40Z</time>
      </trkpt>
      <trkpt lat="47.5728089" lon="10.6466569">
        <ele>796.1100000</ele>
        <time>2014-03-31T14:56:50Z</time>
      </trkpt>
      <trkpt lat="47.5727154" lon="10.6468463">
        <ele>795.6300000</ele>
        <time>2014-03-31T14:56:51Z</time>
      </trkpt>
      <trkpt lat="47.5726471" lon="10.6470541">
        <ele>795.6300000</ele>
        <time>2014-03-31T14:56:52Z</time>
      </trkpt>
      <trkpt lat="47.5725995" lon="10.6472816">
        <ele>795.6300000</ele>
        <time>2014-03-31T14:56:53Z</time>
      </trkpt>
      <trkpt lat="47.5725717" lon="10.6475195">
        <ele>795.6300000</ele>
        <time>2014-03-31T14:56:54Z</time>
      </trkpt>
      <trkpt lat="47.5725697" lon="10.6477585">
        <ele>795.6300000</ele>
        <time>2014-03-31T14:56:55Z</time>
      </trkpt>
      <trkpt lat="47.5725847" lon="10.6479908">
        <ele>795.6300000</ele>
        <time>2014-03-31T14:56:56Z</time>
      </trkpt>
      <trkpt lat="47.5726062" lon="10.6482186">
        <ele>795.6300000</ele>
        <time>2014-03-31T14:56:57Z</time>
      </trkpt>
      <trkpt lat="47.5730209" lon="10.6532166">
        <ele>794.6700000</ele>
        <time>2014-03-31T14:57:16Z</time>
      </trkpt>
      <trkpt lat="47.5733721" lon="10.6562629">
        <ele>795.6300000</ele>
        <time>2014-03-31T14:57:29Z</time>
      </trkpt>
      <trkpt lat="47.5733882" lon="10.6565086">
        <ele>795.6300000</ele>
        <time>2014-03-31T14:57:30Z</time>
      </trkpt>
      <trkpt lat="47.5734403" lon="10.6572794">
        <ele>797.0700000</ele>
        <time>2014-03-31T14:57:33Z</time>
      </trkpt>
      <trkpt lat="47.5734893" lon="10.6580985">
        <ele>798.9900000</ele>
        <time>2014-03-31T14:57:36Z</time>
      </trkpt>
      <trkpt lat="47.5736735" lon="10.6606874">
        <ele>802.3600000</ele>
        <time>2014-03-31T14:57:46Z</time>
      </trkpt>
      <trkpt lat="47.5739503" lon="10.6627671">
        <ele>802.3600000</ele>
        <time>2014-03-31T14:57:56Z</time>
      </trkpt>
      <trkpt lat="47.5739828" lon="10.6632237">
        <ele>801.8800000</ele>
        <time>2014-03-31T14:57:59Z</time>
      </trkpt>
      <trkpt lat="47.5739639" lon="10.6633410">
        <ele>801.8800000</ele>
        <time>2014-03-31T14:58:00Z</time>
      </trkpt>
      <trkpt lat="47.5739208" lon="10.6634416">
        <ele>801.8800000</ele>
        <time>2014-03-31T14:58:01Z</time>
      </trkpt>
      <trkpt lat="47.5738570" lon="10.6635235">
        <ele>801.8800000</ele>
        <time>2014-03-31T14:58:02Z</time>
      </trkpt>
      <trkpt lat="47.5737794" lon="10.6635916">
        <ele>801.8800000</ele>
        <time>2014-03-31T14:58:03Z</time>
      </trkpt>
      <trkpt lat="47.5736908" lon="10.6636506">
        <ele>801.8800000</ele>
        <time>2014-03-31T14:58:04Z</time>
      </trkpt>
      <trkpt lat="47.5735943" lon="10.6637046">
        <ele>801.8800000</ele>
        <time>2014-03-31T14:58:05Z</time>
      </trkpt>
      <trkpt lat="47.5725881" lon="10.6642266">
        <ele>799.9500000</ele>
        <time>2014-03-31T14:58:13Z</time>
      </trkpt>
      <trkpt lat="47.5701291" lon="10.6657808">
        <ele>799.9500000</ele>
        <time>2014-03-31T14:58:31Z</time>
      </trkpt>
      <trkpt lat="47.5700511" lon="10.6658767">
        <ele>795.1500000</ele>
        <time>2014-03-31T14:58:32Z</time>
      </trkpt>
      <trkpt lat="47.5699805" lon="10.6659620">
        <ele>795.1500000</ele>
        <time>2014-03-31T14:58:33Z</time>
      </trkpt>
      <trkpt lat="47.5699110" lon="10.6660283">
        <ele>794.6700000</ele>
        <time>2014-03-31T14:58:34Z</time>
      </trkpt>
      <trkpt lat="47.5698406" lon="10.6660795">
        <ele>794.6700000</ele>
        <time>2014-03-31T14:58:35Z</time>
      </trkpt>
      <trkpt lat="47.5697748" lon="10.6661308">
        <ele>794.6700000</ele>
        <time>2014-03-31T14:58:36Z</time>
      </trkpt>
      <trkpt lat="47.5697167" lon="10.6661971">
        <ele>794.6700000</ele>
        <time>2014-03-31T14:58:37Z</time>
      </trkpt>
      <trkpt lat="47.5696748" lon="10.6662824">
        <ele>794.6700000</ele>
        <time>2014-03-31T14:58:38Z</time>
      </trkpt>
      <trkpt lat="47.5696467" lon="10.6663784">
        <ele>794.6700000</ele>
        <time>2014-03-31T14:58:39Z</time>
      </trkpt>
      <trkpt lat="47.5696182" lon="10.6664808">
        <ele>794.6700000</ele>
        <time>2014-03-31T14:58:40Z</time>
      </trkpt>
      <trkpt lat="47.5695830" lon="10.6665859">
        <ele>794.6700000</ele>
        <time>2014-03-31T14:58:41Z</time>
      </trkpt>
      <trkpt lat="47.5690568" lon="10.6683672">
        <ele>794.6700000</ele>
        <time>2014-03-31T14:58:52Z</time>
      </trkpt>
      <trkpt lat="47.5688310" lon="10.6717048">
        <ele>795.6300000</ele>
        <time>2014-03-31T14:59:08Z</time>
      </trkpt>
      <trkpt lat="47.5683120" lon="10.6757961">
        <ele>795.6300000</ele>
        <time>2014-03-31T14:59:28Z</time>
      </trkpt>
      <trkpt lat="47.5681879" lon="10.6805581">
        <ele>797.5500000</ele>
        <time>2014-03-31T14:59:51Z</time>
      </trkpt>
      <trkpt lat="47.5681622" lon="10.6838418">
        <ele>799.4700000</ele>
        <time>2014-03-31T15:00:08Z</time>
      </trkpt>
      <trkpt lat="47.5683032" lon="10.6880890">
        <ele>800.4400000</ele>
        <time>2014-03-31T15:00:31Z</time>
      </trkpt>
      <trkpt lat="47.5680433" lon="10.6915941">
        <ele>801.4000000</ele>
        <time>2014-03-31T15:00:50Z</time>
      </trkpt>
      <trkpt lat="47.5677759" lon="10.6944486">
        <ele>802.3600000</ele>
        <time>2014-03-31T15:01:09Z</time>
      </trkpt>
      <trkpt lat="47.5677787" lon="10.6948778">
        <ele>802.3600000</ele>
        <time>2014-03-31T15:01:17Z</time>
      </trkpt>
      <trkpt lat="47.5677850" lon="10.6950441">
        <ele>802.3600000</ele>
        <time>2014-03-31T15:01:24Z</time>
      </trkpt>
      <trkpt lat="47.5677913" lon="10.6951056">
        <ele>802.3600000</ele>
        <time>2014-03-31T15:01:25Z</time>
      </trkpt>
      <trkpt lat="47.5678106" lon="10.6951571">
        <ele>802.3600000</ele>
        <time>2014-03-31T15:01:26Z</time>
      </trkpt>
      <trkpt lat="47.5678366" lon="10.6951938">
        <ele>802.3600000</ele>
        <time>2014-03-31T15:01:27Z</time>
      </trkpt>
      <trkpt lat="47.5678637" lon="10.6952100">
        <ele>802.3600000</ele>
        <time>2014-03-31T15:01:28Z</time>
      </trkpt>
      <trkpt lat="47.5678942" lon="10.6952105">
        <ele>802.3600000</ele>
        <time>2014-03-31T15:01:29Z</time>
      </trkpt>
      <trkpt lat="47.5679298" lon="10.6952064">
        <ele>802.3600000</ele>
        <time>2014-03-31T15:01:30Z</time>
      </trkpt>
      <trkpt lat="47.5680237" lon="10.6952025">
        <ele>802.3600000</ele>
        <time>2014-03-31T15:01:32Z</time>
      </trkpt>
      <trkpt lat="47.5680802" lon="10.6952133">
        <ele>802.3600000</ele>
        <time>2014-03-31T15:01:33Z</time>
      </trkpt>
      <trkpt lat="47.5681967" lon="10.6952639">
        <ele>802.3600000</ele>
        <time>2014-03-31T15:01:35Z</time>
      </trkpt>
      <trkpt lat="47.5683066" lon="10.6953714">
        <ele>802.3600000</ele>
        <time>2014-03-31T15:01:37Z</time>
      </trkpt>
      <trkpt lat="47.5683559" lon="10.6954441">
        <ele>802.3600000</ele>
        <time>2014-03-31T15:01:38Z</time>
      </trkpt>
      <trkpt lat="47.5683937" lon="10.6955418">
        <ele>802.8400000</ele>
        <time>2014-03-31T15:01:39Z</time>
      </trkpt>
      <trkpt lat="47.5684198" lon="10.6956643">
        <ele>802.8400000</ele>
        <time>2014-03-31T15:01:40Z</time>
      </trkpt>
      <trkpt lat="47.5684460" lon="10.6957981">
        <ele>802.8400000</ele>
        <time>2014-03-31T15:01:41Z</time>
      </trkpt>
      <trkpt lat="47.5684834" lon="10.6959356">
        <ele>802.8400000</ele>
        <time>2014-03-31T15:01:42Z</time>
      </trkpt>
      <trkpt lat="47.5685323" lon="10.6960762">
        <ele>803.3200000</ele>
        <time>2014-03-31T15:01:43Z</time>
      </trkpt>
      <trkpt lat="47.5685849" lon="10.6962146">
        <ele>803.3200000</ele>
        <time>2014-03-31T15:01:44Z</time>
      </trkpt>
      <trkpt lat="47.5690760" lon="10.6973755">
        <ele>803.3200000</ele>
        <time>2014-03-31T15:01:54Z</time>
      </trkpt>
      <trkpt lat="47.5690963" lon="10.6974577">
        <ele>803.8000000</ele>
        <time>2014-03-31T15:01:55Z</time>
      </trkpt>
      <trkpt lat="47.5691033" lon="10.6975493">
        <ele>803.8000000</ele>
        <time>2014-03-31T15:01:56Z</time>
      </trkpt>
      <trkpt lat="47.5691026" lon="10.6976390">
        <ele>803.8000000</ele>
        <time>2014-03-31T15:01:57Z</time>
      </trkpt>
      <trkpt lat="47.5690952" lon="10.6977231">
        <ele>803.8000000</ele>
        <time>2014-03-31T15:01:58Z</time>
      </trkpt>
      <trkpt lat="47.5690774" lon="10.6978059">
        <ele>804.2800000</ele>
        <time>2014-03-31T15:01:59Z</time>
      </trkpt>
      <trkpt lat="47.5690575" lon="10.6978778">
        <ele>804.2800000</ele>
        <time>2014-03-31T15:02:00Z</time>
      </trkpt>
      <trkpt lat="47.5690424" lon="10.6979327">
        <ele>804.2800000</ele>
        <time>2014-03-31T15:02:01Z</time>
      </trkpt>
      <trkpt lat="47.5689946" lon="10.6980827">
        <ele>804.7600000</ele>
        <time>2014-03-31T15:02:15Z</time>
      </trkpt>
      <trkpt lat="47.5689704" lon="10.6981103">
        <ele>805.2400000</ele>
        <time>2014-03-31T15:02:38Z</time>
      </trkpt>
      <trkpt lat="47.5689640" lon="10.6984161">
        <ele>805.7200000</ele>
        <time>2014-03-31T15:02:56Z</time>
      </trkpt>
      <trkpt lat="47.5691133" lon="10.6986042">
        <ele>806.2000000</ele>
        <time>2014-03-31T15:03:14Z</time>
      </trkpt>
      <trkpt lat="47.5693137" lon="10.6988509">
        <ele>806.2000000</ele>
        <time>2014-03-31T15:03:34Z</time>
      </trkpt>
      <trkpt lat="47.5694470" lon="10.6990473">
        <ele>806.2000000</ele>
        <time>2014-03-31T15:03:49Z</time>
      </trkpt>
      <trkpt lat="47.5696061" lon="10.6993588">
        <ele>806.2000000</ele>
        <time>2014-03-31T15:04:04Z</time>
      </trkpt>
      <trkpt lat="47.5696767" lon="10.6996845">
        <ele>804.7600000</ele>
        <time>2014-03-31T15:04:13Z</time>
      </trkpt>
      <trkpt lat="47.5696689" lon="10.7001546">
        <ele>804.7600000</ele>
        <time>2014-03-31T15:04:21Z</time>
      </trkpt>
      <trkpt lat="47.5696582" lon="10.7002266">
        <ele>804.7600000</ele>
        <time>2014-03-31T15:04:22Z</time>
      </trkpt>
      <trkpt lat="47.5696540" lon="10.7003011">
        <ele>804.7600000</ele>
        <time>2014-03-31T15:04:23Z</time>
      </trkpt>
      <trkpt lat="47.5696531" lon="10.7004657">
        <ele>804.7600000</ele>
        <time>2014-03-31T15:04:25Z</time>
      </trkpt>
      <trkpt lat="47.5696416" lon="10.7005530">
        <ele>804.7600000</ele>
        <time>2014-03-31T15:04:26Z</time>
      </trkpt>
      <trkpt lat="47.5696151" lon="10.7006392">
        <ele>804.7600000</ele>
        <time>2014-03-31T15:04:27Z</time>
      </trkpt>
      <trkpt lat="47.5695806" lon="10.7007240">
        <ele>804.7600000</ele>
        <time>2014-03-31T15:04:28Z</time>
      </trkpt>
      <trkpt lat="47.5695472" lon="10.7008071">
        <ele>804.7600000</ele>
        <time>2014-03-31T15:04:29Z</time>
      </trkpt>
      <trkpt lat="47.5690473" lon="10.7019451">
        <ele>806.2000000</ele>
        <time>2014-03-31T15:04:42Z</time>
      </trkpt>
      <trkpt lat="47.5689871" lon="10.7020700">
        <ele>806.2000000</ele>
        <time>2014-03-31T15:04:43Z</time>
      </trkpt>
      <trkpt lat="47.5689345" lon="10.7022083">
        <ele>806.2000000</ele>
        <time>2014-03-31T15:04:44Z</time>
      </trkpt>
      <trkpt lat="47.5686305" lon="10.7034155">
        <ele>803.8000000</ele>
        <time>2014-03-31T15:04:56Z</time>
      </trkpt>
      <trkpt lat="47.5686305" lon="10.7034155">
        <ele>804.2800000</ele>
        <time>2014-03-31T15:05:13Z</time>
      </trkpt>
      <trkpt lat="47.5686227" lon="10.7034473">
        <ele>804.2800000</ele>
        <time>2014-03-31T15:05:14Z</time>
      </trkpt>
      <trkpt lat="47.5683515" lon="10.7044506">
        <ele>802.3600000</ele>
        <time>2014-03-31T15:05:22Z</time>
      </trkpt>
      <trkpt lat="47.5679610" lon="10.7056857">
        <ele>798.5100000</ele>
        <time>2014-03-31T15:05:28Z</time>
      </trkpt>
      <trkpt lat="47.5663815" lon="10.7093961">
        <ele>797.0700000</ele>
        <time>2014-03-31T15:05:44Z</time>
      </trkpt>
      <trkpt lat="47.5657028" lon="10.7108707">
        <ele>800.4400000</ele>
        <time>2014-03-31T15:05:54Z</time>
      </trkpt>
      <trkpt lat="47.5656715" lon="10.7109346">
        <ele>800.4400000</ele>
        <time>2014-03-31T15:06:06Z</time>
      </trkpt>
      <trkpt lat="47.5656715" lon="10.7109346">
        <ele>800.4400000</ele>
        <time>2014-03-31T15:06:13Z</time>
      </trkpt>
      <trkpt lat="47.5656571" lon="10.7109714">
        <ele>801.4000000</ele>
        <time>2014-03-31T15:06:14Z</time>
      </trkpt>
      <trkpt lat="47.5652275" lon="10.7122556">
        <ele>803.8000000</ele>
        <time>2014-03-31T15:06:24Z</time>
      </trkpt>
      <trkpt lat="47.5651101" lon="10.7145322">
        <ele>806.2000000</ele>
        <time>2014-03-31T15:06:34Z</time>
      </trkpt>
      <trkpt lat="47.5658361" lon="10.7168880">
        <ele>805.2400000</ele>
        <time>2014-03-31T15:06:43Z</time>
      </trkpt>
      <trkpt lat="47.5673786" lon="10.7196972">
        <ele>804.2800000</ele>
        <time>2014-03-31T15:06:56Z</time>
      </trkpt>
      <trkpt lat="47.5689392" lon="10.7215696">
        <ele>802.3600000</ele>
        <time>2014-03-31T15:07:11Z</time>
      </trkpt>
      <trkpt lat="47.5703296" lon="10.7238175">
        <ele>802.3600000</ele>
        <time>2014-03-31T15:07:25Z</time>
      </trkpt>
      <trkpt lat="47.5705582" lon="10.7242245">
        <ele>803.8000000</ele>
        <time>2014-03-31T15:07:27Z</time>
      </trkpt>
      <trkpt lat="47.5717527" lon="10.7271291">
        <ele>801.8800000</ele>
        <time>2014-03-31T15:07:41Z</time>
      </trkpt>
      <trkpt lat="47.5729853" lon="10.7293624">
        <ele>800.9200000</ele>
        <time>2014-03-31T15:07:56Z</time>
      </trkpt>
      <trkpt lat="47.5734000" lon="10.7302483">
        <ele>800.4400000</ele>
        <time>2014-03-31T15:08:02Z</time>
      </trkpt>
      <trkpt lat="47.5734861" lon="10.7305299">
        <ele>800.4400000</ele>
        <time>2014-03-31T15:08:04Z</time>
      </trkpt>
      <trkpt lat="47.5717527" lon="10.7271291">
        <ele>801.8800000</ele>
        <time>2014-03-31T15:07:41Z</time>
      </trkpt>
      <trkpt lat="47.5729853" lon="10.7293624">
        <ele>800.9200000</ele>
        <time>2014-03-31T15:07:56Z</time>
      </trkpt>
      <trkpt lat="47.5734000" lon="10.7302483">
        <ele>800.4400000</ele>
        <time>2014-03-31T15:08:02Z</time>
      </trkpt>
      <trkpt lat="47.5734000" lon="10.7302483">
        <ele>800.4400000</ele>
        <time>2014-03-31T15:08:02Z</time>
      </trkpt>
    </trkseg>
  </trk>

</gpx>
